Time;durP1;ratioP1;P1;durP2;ratioP2;P2;SDS_P1;SDS_P2;PMS_P1;PMS_P2;Temp;Humidity;BMP_temperature;BMP_pressure;BME280_temperature;BME280_humidity;BME280_pressure;Samples;Min_cycle;Max_cycle;Signal;HPM_P1;HPM_P2
2022/03/31 00:01:02;;;;;;;41.02;22.15;;;;;;;8.18;100.00;100042.20;1685041;85;21051;-61
2022/03/31 00:03:29;;;;;;;39.70;21.12;;;;;;;8.15;100.00;100038.05;1685115;85;21083;-61
2022/03/31 00:05:57;;;;;;;44.40;22.02;;;;;;;8.06;100.00;100032.45;1684778;85;21052;-61
2022/03/31 00:08:24;;;;;;;42.20;22.00;;;;;;;8.03;100.00;100030.41;1684969;85;21090;-61
2022/03/31 00:10:55;;;;;;;43.68;21.95;;;;;;;7.98;100.00;100024.63;1684715;85;21016;-61
2022/03/31 00:13:28;;;;;;;38.85;21.62;;;;;;;7.89;100.00;100022.91;1685046;85;21019;-61
2022/03/31 00:15:58;;;;;;;39.20;21.30;;;;;;;7.85;100.00;100013.22;1684988;84;21004;-61
2022/03/31 00:18:31;;;;;;;39.33;21.30;;;;;;;7.80;100.00;100015.95;1685028;85;21023;-61
2022/03/31 00:20:58;;;;;;;39.25;21.80;;;;;;;7.74;100.00;100020.04;1684938;85;21047;-61
2022/03/31 00:34:56;;;;;;;40.38;22.35;;;;;;;7.63;100.00;100017.91;1684893;85;21598;-61
2022/03/31 00:37:42;;;;;;;39.95;20.27;;;;;;;7.67;100.00;100013.52;1684773;85;21047;-61
2022/03/31 00:40:13;;;;;;;34.67;19.98;;;;;;;7.69;100.00;100013.00;1684696;85;21105;-61
2022/03/31 00:42:45;;;;;;;39.63;20.40;;;;;;;7.72;100.00;100011.58;1685025;85;21037;-61
2022/03/31 00:45:23;;;;;;;;;;;;;;;7.79;100.00;100010.91;1687249;85;21097;-61
2022/03/31 00:47:52;;;;;;;35.28;19.23;;;;;;;7.84;100.00;100007.70;1685058;85;20100;-61
2022/03/31 00:50:22;;;;;;;39.40;19.32;;;;;;;7.89;100.00;100008.81;1684959;85;21515;-61
2022/03/31 00:52:50;;;;;;;41.08;19.67;;;;;;;7.90;100.00;100010.00;1684948;85;21575;-61
2022/03/31 00:55:19;;;;;;;40.50;19.90;;;;;;;7.93;100.00;100012.92;1685003;85;21082;-61
2022/03/31 00:57:53;;;;;;;42.23;19.57;;;;;;;7.93;100.00;100014.20;1684885;85;21090;-61
2022/03/31 01:00:18;;;;;;;45.25;19.17;;;;;;;7.93;100.00;100016.30;1684931;85;21043;-61
2022/03/31 01:02:46;;;;;;;37.73;18.42;;;;;;;7.93;100.00;100020.15;1684634;85;21051;-61
2022/03/31 01:05:15;;;;;;;35.90;18.62;;;;;;;7.93;100.00;100020.61;1684682;85;21007;-61
2022/03/31 01:07:44;;;;;;;41.92;19.87;;;;;;;7.92;100.00;100025.33;1684711;85;21027;-62
2022/03/31 01:10:14;;;;;;;41.00;19.23;;;;;;;7.94;100.00;100018.41;1684643;85;21071;-61
2022/03/31 01:12:42;;;;;;;37.20;19.30;;;;;;;7.98;100.00;100029.75;1684940;85;21019;-61
2022/03/31 01:15:19;;;;;;;42.08;18.27;;;;;;;8.00;100.00;100037.37;1687470;84;21058;-61
2022/03/31 01:17:49;;;;;;;37.73;18.55;;;;;;;8.02;100.00;100044.56;1699589;84;21055;-61
2022/03/31 01:20:20;;;;;;;37.15;18.42;;;;;;;8.03;100.00;100037.27;1699659;84;21019;-62
2022/03/31 01:22:51;;;;;;;36.83;17.85;;;;;;;8.06;100.00;100037.13;1699891;84;21018;-62
2022/03/31 01:25:19;;;;;;;36.65;18.12;;;;;;;8.10;100.00;100037.38;1699860;84;21067;-61
2022/03/31 01:27:48;;;;;;;38.08;19.00;;;;;;;8.11;100.00;100028.81;1699846;84;21082;-61
2022/03/31 01:30:21;;;;;;;40.20;17.95;;;;;;;8.10;100.00;100036.11;1699614;84;21070;-61
2022/03/31 01:32:50;;;;;;;37.63;17.52;;;;;;;8.12;100.00;100042.45;1699869;84;21077;-62
2022/03/31 01:35:17;;;;;;;43.00;17.82;;;;;;;8.11;100.00;100045.48;1700217;84;21022;-62
2022/03/31 01:37:47;;;;;;;39.35;18.05;;;;;;;8.16;100.00;100039.70;1699682;84;21050;-61
2022/03/31 01:40:15;;;;;;;40.38;18.40;;;;;;;8.23;100.00;100041.55;1699980;84;21562;-62
2022/03/31 01:42:45;;;;;;;43.50;18.57;;;;;;;8.26;100.00;100032.45;1699619;84;21047;-61
2022/03/31 01:45:17;;;;;;;33.48;17.48;;;;;;;8.30;100.00;100034.45;1699598;84;21602;-61
2022/03/31 01:47:46;;;;;;;35.83;17.40;;;;;;;8.35;100.00;100037.64;1700093;84;21014;-61
2022/03/31 01:50:15;;;;;;;34.13;17.52;;;;;;;8.37;100.00;100034.13;1699783;84;21093;-61
2022/03/31 01:52:44;;;;;;;38.45;18.45;;;;;;;8.40;100.00;100025.01;1699644;84;21122;-62
2022/03/31 01:55:11;;;;;;;40.08;18.45;;;;;;;8.39;100.00;100031.05;1699990;84;21149;-62
2022/03/31 01:57:39;;;;;;;38.42;18.23;;;;;;;8.42;100.00;100039.09;1699733;84;21054;-63
2022/03/31 02:00:09;;;;;;;39.83;18.25;;;;;;;8.43;100.00;100039.45;1699637;84;21050;-61
2022/03/31 02:02:43;;;;;;;36.28;17.60;;;;;;;8.49;100.00;100044.32;1699671;84;21503;-62
2022/03/31 02:05:11;;;;;;;42.40;17.98;;;;;;;8.48;100.00;100034.98;1699501;84;21051;-62
2022/03/31 02:07:39;;;;;;;38.63;17.92;;;;;;;8.53;100.00;100042.01;1699790;84;21002;-62
2022/03/31 02:10:13;;;;;;;37.65;18.32;;;;;;;8.52;100.00;100034.41;1699538;84;21090;-61
2022/03/31 02:12:41;;;;;;;41.55;18.02;;;;;;;8.52;100.00;100024.97;1700167;84;21015;-62
2022/03/31 02:15:10;;;;;;;36.15;17.32;;;;;;;8.54;100.00;100028.76;1698630;84;21115;-61
2022/03/31 02:17:38;;;;;;;35.92;16.50;;;;;;;8.59;100.00;100029.38;1685123;85;21043;-61
2022/03/31 02:20:09;;;;;;;38.28;18.20;;;;;;;8.63;100.00;100030.91;1684832;85;21114;-61
2022/03/31 02:22:37;;;;;;;37.73;18.42;;;;;;;8.64;100.00;100035.15;1685000;85;21024;-61
2022/03/31 02:25:09;;;;;;;38.40;17.45;;;;;;;8.66;100.00;100035.92;1684936;85;21051;-61
2022/03/31 02:27:37;;;;;;;41.37;17.85;;;;;;;8.68;100.00;100031.98;1684954;85;21039;-62
2022/03/31 02:30:07;;;;;;;36.93;18.20;;;;;;;8.70;100.00;100036.59;1685181;85;21059;-61
2022/03/31 02:32:35;;;;;;;40.12;18.60;;;;;;;8.66;100.00;100035.92;1685027;85;21047;-61
2022/03/31 02:35:05;;;;;;;39.45;17.82;;;;;;;8.69;100.00;100031.92;1684969;85;21079;-61
2022/03/31 02:37:32;;;;;;;46.48;17.37;;;;;;;8.71;100.00;100028.02;1685113;85;21039;-61
2022/03/31 02:40:03;;;;;;;36.50;17.35;;;;;;;8.71;100.00;100028.02;1684736;85;21051;-61
2022/03/31 02:42:34;;;;;;;39.92;17.20;;;;;;;8.73;100.00;100030.87;1684767;85;21048;-62
2022/03/31 02:45:05;;;;;;;39.33;17.65;;;;;;;8.74;100.00;100033.84;1685030;85;21031;-61
2022/03/31 02:47:35;;;;;;;42.55;18.37;;;;;;;8.77;100.00;100034.16;1685065;85;21087;-61
2022/03/31 02:50:06;;;;;;;44.30;17.70;;;;;;;8.77;100.00;100034.98;1685066;85;21020;-61
2022/03/31 02:55:26;;;;;;;38.63;17.65;;;;;;;8.80;100.00;100039.16;1685016;85;21580;-61
2022/03/31 02:57:54;;;;;;;42.75;18.98;;;;;;;8.78;100.00;100038.40;1685227;85;21035;-62
2022/03/31 03:00:23;;;;;;;43.50;18.87;;;;;;;8.79;100.00;100028.50;1685172;85;21058;-61
2022/03/31 03:02:51;;;;;;;37.80;18.12;;;;;;;8.82;100.00;100039.93;1685140;85;21043;-61
2022/03/31 03:05:18;;;;;;;37.58;18.00;;;;;;;8.85;100.00;100041.06;1684835;85;21066;-61
2022/03/31 03:07:46;;;;;;;41.00;18.42;;;;;;;8.84;100.00;100044.55;1685046;85;21043;-62
2022/03/31 03:10:13;;;;;;;33.60;18.42;;;;;;;8.82;100.00;100036.91;1684808;85;21115;-61
2022/03/31 03:12:43;;;;;;;40.90;18.12;;;;;;;8.76;100.00;100034.61;1684772;85;21615;-61
2022/03/31 03:15:14;;;;;;;42.58;19.05;;;;;;;8.78;100.00;100037.12;1684786;85;21024;-61
2022/03/31 03:17:43;;;;;;;44.60;19.70;;;;;;;8.77;100.00;100035.44;1685000;84;21055;-61
2022/03/31 03:20:13;;;;;;;47.75;18.65;;;;;;;8.79;100.00;100038.77;1684977;85;21098;-61
2022/03/31 03:22:46;;;;;;;40.52;19.27;;;;;;;8.79;100.00;100038.31;1684960;85;21090;-61
2022/03/31 03:25:18;;;;;;;44.10;19.62;;;;;;;8.80;100.00;100035.31;1685199;85;21023;-61
2022/03/31 03:27:49;;;;;;;40.38;20.72;;;;;;;8.82;100.00;100033.52;1684874;85;21020;-62
2022/03/31 03:30:18;;;;;;;42.03;21.23;;;;;;;8.89;100.00;100028.93;1685176;85;21508;-62
2022/03/31 03:32:46;;;;;;;42.10;19.95;;;;;;;8.89;100.00;100034.89;1684706;85;21062;-61
2022/03/31 03:35:17;;;;;;;44.13;20.88;;;;;;;8.90;100.00;100026.73;1685052;85;21142;-61
2022/03/31 03:37:44;;;;;;;44.23;20.52;;;;;;;8.86;100.00;100023.92;1681938;85;21519;-61
2022/03/31 03:40:15;;;;;;;46.30;20.85;;;;;;;8.97;100.00;100035.84;1684701;85;21540;-61
2022/03/31 03:42:45;;;;;;;45.15;21.62;;;;;;;9.00;100.00;100037.83;1684985;85;21063;-62
2022/03/31 03:45:13;;;;;;;45.38;21.20;;;;;;;9.02;100.00;100037.30;1684818;85;21028;-62
2022/03/31 03:47:43;;;;;;;40.38;20.37;;;;;;;9.12;100.00;100029.98;1685122;85;21543;-62
2022/03/31 03:50:11;;;;;;;44.30;21.70;;;;;;;9.15;100.00;100037.56;1685023;85;21147;-61
2022/03/31 03:52:39;;;;;;;41.13;21.15;;;;;;;9.19;100.00;100029.28;1684740;85;21056;-61
2022/03/31 03:55:08;;;;;;;45.10;21.33;;;;;;;9.18;100.00;100042.55;1685153;85;21499;-61
2022/03/31 03:57:36;;;;;;;46.90;21.57;;;;;;;9.25;100.00;100045.69;1685124;85;21031;-61
2022/03/31 04:00:05;;;;;;;43.38;21.40;;;;;;;9.30;100.00;100039.05;1685190;85;21501;-61
2022/03/31 04:02:32;;;;;;;50.98;22.52;;;;;;;9.34;100.00;100036.25;1680129;85;21093;-62
2022/03/31 04:05:00;;;;;;;50.17;21.12;;;;;;;9.36;100.00;100028.48;1670246;85;21015;-61
2022/03/31 04:07:27;;;;;;;40.58;20.57;;;;;;;9.34;100.00;100035.44;1667540;86;21040;-62
2022/03/31 04:09:55;;;;;;;44.10;20.35;;;;;;;9.39;100.00;100030.92;1670836;86;21100;-62
2022/03/31 04:12:23;;;;;;;39.75;20.37;;;;;;;9.43;100.00;100036.30;1672054;86;21095;-61
2022/03/31 04:14:51;;;;;;;45.17;21.62;;;;;;;9.49;100.00;100041.15;1672675;86;21031;-62
2022/03/31 04:17:21;;;;;;;43.95;20.02;;;;;;;9.55;100.00;100039.58;1688456;84;21033;-62
2022/03/31 04:19:48;;;;;;;42.58;20.55;;;;;;;9.58;100.00;100034.73;1702652;84;21072;-62
2022/03/31 04:22:16;;;;;;;39.05;19.60;;;;;;;9.65;100.00;100039.98;1711884;83;21079;-62
2022/03/31 04:24:44;;;;;;;44.70;20.35;;;;;;;9.66;100.00;100036.95;1712231;83;21542;-61
2022/03/31 04:27:14;;;;;;;46.25;20.97;;;;;;;9.69;100.00;100024.79;1711812;83;21044;-61
2022/03/31 04:29:42;;;;;;;39.08;19.75;;;;;;;9.77;100.00;100036.81;1711961;84;21051;-62
2022/03/31 04:32:12;;;;;;;38.17;20.10;;;;;;;9.77;100.00;100041.95;1712164;84;21055;-62
2022/03/31 04:34:40;;;;;;;40.35;20.12;;;;;;;9.78;100.00;100029.93;1701532;84;20985;-62
2022/03/31 04:37:07;;;;;;;38.88;19.80;;;;;;;9.87;100.00;100019.64;1690812;84;21550;-62
2022/03/31 04:39:35;;;;;;;46.85;20.08;;;;;;;9.90;100.00;100010.05;1698025;84;21028;-62
2022/03/31 04:42:04;;;;;;;38.15;19.05;;;;;;;9.98;100.00;100015.64;1698308;84;21082;-61
2022/03/31 04:44:32;;;;;;;44.40;20.15;;;;;;;10.03;100.00;100022.66;1694921;84;20971;-62
2022/03/31 04:46:59;;;;;;;46.58;19.80;;;;;;;10.07;100.00;100016.91;1696942;84;21060;-61
2022/03/31 04:49:27;;;;;;;37.25;19.42;;;;;;;10.11;100.00;100015.85;1689736;84;21048;-62
2022/03/31 04:51:56;;;;;;;42.98;19.17;;;;;;;10.18;100.00;100020.26;1698211;84;21623;-62
2022/03/31 04:54:23;;;;;;;36.77;18.07;;;;;;;10.21;100.00;100018.34;1698101;84;21032;-62
2022/03/31 04:56:51;;;;;;;43.20;19.15;;;;;;;10.29;100.00;100035.14;1696865;84;21055;-62
2022/03/31 04:59:19;;;;;;;39.65;19.15;;;;;;;10.37;100.00;100030.47;1696878;84;21044;-62
2022/03/31 05:01:46;;;;;;;34.13;18.95;;;;;;;10.44;100.00;100026.66;1697011;84;21060;-62
2022/03/31 05:04:14;;;;;;;35.98;18.35;;;;;;;10.54;100.00;100048.47;1696916;84;21067;-61
2022/03/31 05:06:41;;;;;;;36.85;18.20;;;;;;;10.63;100.00;100036.39;1687878;84;21035;-61
2022/03/31 05:09:10;;;;;;;39.65;17.77;;;;;;;10.62;100.00;100040.33;1696973;84;21071;-62
2022/03/31 05:11:39;;;;;;;41.63;18.60;;;;;;;10.73;100.00;100041.08;1697500;84;21056;-62
2022/03/31 05:14:06;;;;;;;38.10;18.05;;;;;;;10.83;100.00;100049.52;1696902;84;21025;-61
2022/03/31 05:16:35;;;;;;;34.63;17.20;;;;;;;10.89;100.00;100048.38;1696828;84;21085;-62
2022/03/31 05:19:03;;;;;;;37.70;17.95;;;;;;;10.97;100.00;100050.08;1696780;84;21041;-62
2022/03/31 05:21:32;;;;;;;38.00;17.62;;;;;;;10.95;100.00;100061.38;1696778;84;21040;-61
2022/03/31 05:23:59;;;;;;;37.73;17.55;;;;;;;10.98;100.00;100056.88;1697261;84;21051;-61
2022/03/31 05:26:27;;;;;;;34.10;17.62;;;;;;;11.20;100.00;100055.74;1696753;84;21091;-61
2022/03/31 05:28:54;;;;;;;32.63;16.57;;;;;;;11.33;100.00;100053.33;1696887;85;21384;-62
2022/03/31 05:31:21;;;;;;;34.67;16.73;;;;;;;11.35;100.00;100061.34;1697035;84;21059;-62
2022/03/31 05:33:49;;;;;;;33.88;16.87;;;;;;;11.41;100.00;100052.02;1696687;84;21053;-61
2022/03/31 05:36:16;;;;;;;34.63;17.20;;;;;;;11.59;100.00;100056.58;1697109;84;21073;-61
2022/03/31 05:38:44;;;;;;;35.28;16.52;;;;;;;11.70;100.00;100068.05;1696980;84;21079;-61
2022/03/31 05:41:12;;;;;;;33.33;15.58;;;;;;;11.74;100.00;100072.11;1696808;84;21083;-61
2022/03/31 05:43:40;;;;;;;35.40;16.80;;;;;;;11.86;100.00;100079.62;1697162;84;21024;-61
2022/03/31 05:46:07;;;;;;;31.87;16.23;;;;;;;11.87;100.00;100078.26;1696994;84;21021;-62
2022/03/31 05:48:34;;;;;;;29.20;15.28;;;;;;;11.93;100.00;100083.57;1697350;84;21104;-61
2022/03/31 05:51:03;;;;;;;35.35;15.32;;;;;;;12.09;100.00;100079.66;1697053;84;21064;-61
2022/03/31 05:53:31;;;;;;;32.60;14.75;;;;;;;12.17;100.00;100077.47;1696932;84;21096;-61
2022/03/31 05:55:58;;;;;;;34.08;15.68;;;;;;;12.29;100.00;100076.77;1697238;84;21096;-61
2022/03/31 05:58:25;;;;;;;23.50;13.50;;;;;;;12.35;100.00;100066.08;1697014;84;21033;-61
2022/03/31 06:00:54;;;;;;;25.85;14.28;;;;;;;12.37;100.00;100068.58;1696004;84;21126;-61
2022/03/31 06:03:23;;;;;;;31.68;14.73;;;;;;;12.34;100.00;100073.44;1696341;84;21084;-62
2022/03/31 06:05:51;;;;;;;25.50;13.45;;;;;;;12.47;100.00;100074.86;1696169;84;21115;-62
2022/03/31 06:08:19;;;;;;;28.70;14.05;;;;;;;12.50;100.00;100066.91;1696074;84;21067;-62
2022/03/31 06:10:47;;;;;;;27.27;12.85;;;;;;;12.63;100.00;100062.70;1696335;84;21151;-62
2022/03/31 06:13:16;;;;;;;23.62;12.43;;;;;;;12.61;100.00;100059.81;1696110;84;21036;-62
2022/03/31 06:15:44;;;;;;;27.07;12.95;;;;;;;12.77;100.00;100051.55;1696208;84;21080;-63
2022/03/31 06:18:11;;;;;;;27.07;12.28;;;;;;;12.96;100.00;100047.37;1683430;84;22177;-61
2022/03/31 06:20:38;;;;;;;28.38;13.48;;;;;;;13.06;100.00;100048.92;1680578;85;21545;-62
2022/03/31 06:23:06;;;;;;;27.17;12.47;;;;;;;13.05;100.00;100052.42;1680419;85;21089;-61
2022/03/31 06:25:33;;;;;;;25.40;12.15;;;;;;;13.15;100.00;100050.92;1680774;85;21120;-62
2022/03/31 06:28:02;;;;;;;25.57;11.60;;;;;;;13.32;100.00;100050.36;1680463;85;21065;-63
2022/03/31 06:30:29;;;;;;;21.00;10.53;;;;;;;13.42;100.00;100047.13;1680518;85;21092;-62
2022/03/31 06:32:58;;;;;;;25.48;11.12;;;;;;;13.49;100.00;100034.63;1680817;85;21132;-61
2022/03/31 06:35:25;;;;;;;22.98;11.10;;;;;;;13.51;100.00;100035.36;1680527;85;21101;-62
2022/03/31 06:37:54;;;;;;;27.10;10.60;;;;;;;13.69;100.00;100040.28;1680488;85;21188;-62
2022/03/31 06:40:22;;;;;;;25.48;10.50;;;;;;;13.69;100.00;100046.28;1680554;85;21048;-62
2022/03/31 06:42:50;;;;;;;21.12;10.78;;;;;;;13.67;100.00;100038.27;1680616;85;21026;-62
2022/03/31 06:45:19;;;;;;;21.97;10.05;;;;;;;13.87;100.00;100044.27;1680542;85;21061;-61
2022/03/31 06:47:47;;;;;;;22.10;10.28;;;;;;;13.94;100.00;100038.22;1680733;85;21089;-62
2022/03/31 06:50:14;;;;;;;24.07;10.40;;;;;;;13.97;100.00;100039.29;1680741;85;21080;-62
2022/03/31 06:52:42;;;;;;;24.65;9.65;;;;;;;14.16;99.88;100021.62;1680360;85;21148;-62
2022/03/31 06:55:10;;;;;;;27.25;9.75;;;;;;;14.32;98.79;100016.73;1680775;85;21101;-62
2022/03/31 06:57:37;;;;;;;26.65;9.58;;;;;;;14.29;97.64;100015.62;1681002;85;21044;-62
2022/03/31 07:00:08;;;;;;;23.20;9.08;;;;;;;14.42;96.91;100020.34;1658859;85;21057;-62
2022/03/31 07:02:37;;;;;;;23.60;8.80;;;;;;;14.38;96.31;100013.72;1680597;85;21707;-62
2022/03/31 07:05:06;;;;;;;22.35;8.98;;;;;;;14.43;94.87;100011.62;1680589;85;21037;-62
2022/03/31 07:07:33;;;;;;;18.98;9.70;;;;;;;14.50;94.22;100027.60;1680730;85;21061;-62
2022/03/31 07:10:01;;;;;;;23.52;8.90;;;;;;;14.58;94.01;100035.23;1680810;85;21045;-62
2022/03/31 07:12:30;;;;;;;18.60;8.23;;;;;;;14.80;92.77;100028.11;1680356;85;21077;-62
2022/03/31 07:15:00;;;;;;;21.07;8.48;;;;;;;14.78;91.63;100031.72;1680722;85;21633;-62
2022/03/31 07:17:29;;;;;;;20.48;8.65;;;;;;;14.84;90.46;100015.74;1675188;85;21055;-62
2022/03/31 07:19:57;;;;;;;25.68;8.85;;;;;;;14.99;90.11;100015.98;1667127;86;21079;-62
2022/03/31 07:22:26;;;;;;;22.05;9.00;;;;;;;15.21;88.97;100017.88;1667566;86;21019;-62
2022/03/31 07:24:54;;;;;;;16.48;8.00;;;;;;;15.31;87.50;100015.47;1667632;86;21031;-62
2022/03/31 07:27:21;;;;;;;22.07;8.83;;;;;;;15.45;86.71;100011.88;1667394;86;21550;-62
2022/03/31 07:29:50;;;;;;;23.32;8.40;;;;;;;15.67;85.20;100007.23;1667460;86;21065;-62
2022/03/31 07:32:17;;;;;;;19.25;8.03;;;;;;;15.87;84.02;100020.55;1667263;86;21082;-62
2022/03/31 07:34:45;;;;;;;22.65;8.38;;;;;;;16.01;82.81;100008.19;1667288;86;21065;-63
2022/03/31 07:37:13;;;;;;;20.45;8.23;;;;;;;16.12;81.69;100011.30;1667581;86;21546;-62
2022/03/31 07:39:45;;;;;;;21.12;8.18;;;;;;;16.33;81.91;100011.91;1667411;86;21047;-62
2022/03/31 07:42:10;;;;;;;29.07;8.43;;;;;;;16.46;80.57;100010.48;1667186;86;21099;-62
2022/03/31 07:44:39;;;;;;;19.20;8.35;;;;;;;16.54;79.92;100006.83;1667236;86;21058;-62
2022/03/31 07:47:07;;;;;;;16.52;7.70;;;;;;;16.52;78.41;100009.54;1667315;86;21098;-62
2022/03/31 07:49:34;;;;;;;24.52;7.75;;;;;;;16.66;77.99;99999.38;1667620;86;21149;-62
2022/03/31 07:52:04;;;;;;;18.23;7.70;;;;;;;16.77;77.11;100003.28;1667319;86;21047;-61
2022/03/31 07:54:32;;;;;;;16.35;7.25;;;;;;;16.69;77.37;100010.03;1667501;86;21593;-62
2022/03/31 07:57:00;;;;;;;21.15;7.25;;;;;;;16.81;77.44;100003.43;1667460;86;21602;-62
2022/03/31 07:59:33;;;;;;;18.17;7.22;;;;;;;16.84;76.79;100002.36;1667415;86;21082;-62
2022/03/31 08:01:56;;;;;;;20.17;7.40;;;;;;;16.82;76.08;100022.44;1667160;86;21137;-62
2022/03/31 08:04:24;;;;;;;20.43;7.53;;;;;;;16.92;75.55;100006.48;1667339;86;21098;-63
2022/03/31 08:06:51;;;;;;;17.12;7.10;;;;;;;16.91;75.62;100010.48;1667912;86;21091;-61
2022/03/31 08:09:21;;;;;;;21.40;7.45;;;;;;;16.92;75.49;100007.78;1668097;86;21196;-61
2022/03/31 08:11:50;;;;;;;16.73;7.60;;;;;;;17.01;74.94;100020.06;1668197;86;21142;-62
2022/03/31 08:14:19;;;;;;;17.85;7.62;;;;;;;17.09;74.77;100005.61;1668391;86;21023;-61
2022/03/31 08:16:49;;;;;;;20.45;7.95;;;;;;;17.16;74.84;100009.39;1668373;85;21051;-62
2022/03/31 08:19:19;;;;;;;23.38;8.03;;;;;;;17.24;74.75;100004.89;1668436;86;21051;-61
2022/03/31 08:21:49;;;;;;;20.85;7.25;;;;;;;17.39;74.16;100004.45;1668392;86;21567;-61
2022/03/31 08:24:16;;;;;;;16.32;7.47;;;;;;;17.49;73.49;100008.45;1668702;86;21102;-61
2022/03/31 08:26:46;;;;;;;18.17;7.22;;;;;;;17.79;72.97;100011.62;1668075;86;21363;-61
2022/03/31 08:29:14;;;;;;;17.62;7.47;;;;;;;17.99;72.02;100002.69;1668098;86;21551;-61
2022/03/31 08:31:42;;;;;;;19.12;7.62;;;;;;;18.18;71.47;100011.89;1668466;86;21503;-61
2022/03/31 08:34:10;;;;;;;22.73;8.35;;;;;;;18.45;70.08;100002.72;1668222;86;21087;-61
2022/03/31 08:36:37;;;;;;;19.65;7.40;;;;;;;18.61;69.43;100005.67;1668085;86;21051;-62
2022/03/31 08:39:06;;;;;;;20.70;7.42;;;;;;;18.82;69.66;100006.10;1668306;86;21083;-61
2022/03/31 08:41:35;;;;;;;24.57;7.97;;;;;;;18.94;68.11;100010.25;1668078;86;21579;-62
2022/03/31 08:44:03;;;;;;;18.70;7.08;;;;;;;19.03;67.96;100009.92;1668198;86;21027;-62
2022/03/31 08:46:34;;;;;;;21.25;6.85;;;;;;;19.16;67.15;100013.11;1668166;86;21523;-62
2022/03/31 08:49:02;;;;;;;20.62;7.10;;;;;;;19.30;66.20;99997.55;1668413;86;21547;-61
2022/03/31 08:51:30;;;;;;;16.37;7.90;;;;;;;19.44;65.80;99997.59;1668515;86;21051;-62
2022/03/31 08:53:58;;;;;;;24.85;7.78;;;;;;;19.37;65.05;99999.94;1668225;86;21560;-62
2022/03/31 08:56:26;;;;;;;16.97;8.00;;;;;;;19.28;65.38;99999.47;1668396;86;21094;-62
2022/03/31 08:58:55;;;;;;;25.52;7.75;;;;;;;19.31;65.83;99995.27;1668206;86;21102;-62
2022/03/31 09:01:23;;;;;;;18.98;6.87;;;;;;;19.31;65.20;99987.44;1668318;86;21070;-61
2022/03/31 09:03:51;;;;;;;16.35;6.90;;;;;;;19.50;64.70;99991.82;1668187;86;21090;-61
2022/03/31 09:06:28;;;;;;;15.90;7.47;;;;;;;19.69;64.56;99984.93;1668011;86;21558;-62
2022/03/31 09:09:03;;;;;;;21.77;7.30;;;;;;;19.73;63.71;99978.04;1668448;86;21535;-62
2022/03/31 09:11:33;;;;;;;19.77;7.25;;;;;;;19.84;63.08;99973.13;1668101;86;21219;-61
2022/03/31 09:14:03;;;;;;;16.97;7.00;;;;;;;20.17;63.17;99973.13;1668438;86;20968;-62
2022/03/31 09:16:38;;;;;;;20.85;7.25;;;;;;;20.25;62.10;99956.70;1668214;86;21070;-62
2022/03/31 09:19:10;;;;;;;20.10;6.83;;;;;;;20.44;61.42;99949.28;1692559;84;21021;-62
2022/03/31 09:21:58;;;;;;;19.73;7.17;;;;;;;20.68;60.94;99938.78;1697120;84;21572;-62
2022/03/31 09:24:31;;;;;;;16.50;6.65;;;;;;;21.01;60.75;99940.77;1697038;84;21024;-62
2022/03/31 09:27:01;;;;;;;17.52;6.65;;;;;;;20.99;60.33;99928.81;1697183;84;21052;-61
2022/03/31 09:29:32;;;;;;;17.75;6.40;;;;;;;21.17;59.14;99927.51;1697232;84;20980;-62
2022/03/31 09:32:12;;;;;;;16.07;6.65;;;;;;;21.27;57.87;99931.33;1671610;84;21029;-62
2022/03/31 09:34:47;;;;;;;14.23;6.40;;;;;;;21.18;57.06;99929.14;1697035;84;21037;-62
2022/03/31 09:37:15;;;;;;;20.50;6.28;;;;;;;21.27;55.91;99920.39;1697167;84;21016;-61
2022/03/31 09:39:42;;;;;;;21.20;6.78;;;;;;;20.94;55.48;99918.77;1696910;85;21093;-61
2022/03/31 09:42:17;;;;;;;25.35;6.45;;;;;;;21.04;56.08;99930.48;1671328;84;21005;-62
2022/03/31 09:44:55;;;;;;;15.48;6.08;;;;;;;21.31;56.64;99924.36;1696851;85;21079;-61
2022/03/31 09:47:26;;;;;;;15.38;5.92;;;;;;;21.38;54.96;99925.87;1697191;84;21500;-62
2022/03/31 09:49:54;;;;;;;19.37;6.95;;;;;;;21.25;55.49;99924.11;1697157;84;21056;-62
2022/03/31 09:52:22;;;;;;;20.48;6.60;;;;;;;21.11;54.69;99912.41;1697194;84;21076;-61
2022/03/31 09:54:50;;;;;;;24.00;5.97;;;;;;;21.06;53.97;99917.25;1696914;84;21032;-62
2022/03/31 09:57:21;;;;;;;15.50;6.10;;;;;;;20.91;54.68;99910.42;1696928;85;21021;-61
2022/03/31 09:59:56;;;;;;;19.12;7.05;;;;;;;20.79;55.66;99909.81;1694538;84;21498;-61
2022/03/31 10:02:22;;;;;;;14.47;5.97;;;;;;;20.91;55.37;99904.70;1695952;84;21083;-62
2022/03/31 10:04:50;;;;;;;17.87;6.28;;;;;;;20.94;54.44;99899.15;1696878;84;21116;-62
2022/03/31 10:07:18;;;;;;;20.25;5.87;;;;;;;20.86;54.31;99898.26;1696208;85;21008;-62
2022/03/31 10:09:47;;;;;;;23.30;6.28;;;;;;;20.71;54.41;99900.09;1696791;84;21017;-62
2022/03/31 10:12:41;;;;;;;19.05;6.00;;;;;;;21.12;53.57;99898.34;1696896;84;21596;-62
2022/03/31 10:15:21;;;;;;;21.40;6.08;;;;;;;21.35;53.60;99899.52;1696788;84;21556;-62
2022/03/31 10:17:49;;;;;;;15.58;6.00;;;;;;;21.35;53.28;99892.13;1697036;84;21029;-62
2022/03/31 10:20:17;;;;;;;19.48;5.92;;;;;;;21.64;52.72;99894.50;1696799;85;21087;-62
2022/03/31 10:25:49;;;;;;;16.17;5.35;;;;;;;21.45;52.10;99883.75;1696801;84;21044;-62
2022/03/31 10:28:21;;;;;;;15.75;5.30;;;;;;;21.68;51.71;99893.21;1696968;84;21036;-62
2022/03/31 10:31:05;;;;;;;19.50;5.53;;;;;;;21.36;50.82;99893.78;1697052;84;21096;-62
2022/03/31 10:33:38;;;;;;;20.20;5.60;;;;;;;21.25;50.62;99885.69;1697282;84;21477;-62
2022/03/31 10:36:13;;;;;;;15.78;5.45;;;;;;;21.11;51.42;99893.59;1697246;84;21067;-62
2022/03/31 10:39:03;;;;;;;22.13;5.33;;;;;;;21.17;51.34;99879.09;1697208;84;21056;-62
2022/03/31 10:41:35;;;;;;;18.25;5.58;;;;;;;21.34;50.48;99887.88;1697032;84;21107;-62
2022/03/31 10:44:18;;;;;;;28.87;6.35;;;;;;;21.75;49.32;99878.50;1696992;84;21031;-62
2022/03/31 10:46:59;;;;;;;22.15;5.62;;;;;;;22.03;48.66;99888.80;1697633;84;21526;-62
2022/03/31 10:49:27;;;;;;;19.00;5.40;;;;;;;22.17;48.29;99879.03;1697131;84;21107;-62
2022/03/31 10:51:55;;;;;;;23.45;5.72;;;;;;;22.17;47.42;99879.03;1697088;84;21071;-62
2022/03/31 10:54:28;;;;;;;21.42;5.75;;;;;;;21.86;47.59;99855.16;1697122;84;21028;-62
2022/03/31 10:57:06;;;;;;;23.23;5.80;;;;;;;21.89;47.54;99853.52;1697461;84;21048;-62
2022/03/31 10:59:36;;;;;;;32.33;6.35;;;;;;;22.04;46.83;99851.61;1697248;84;21297;-63
2022/03/31 11:02:20;;;;;;;26.93;6.00;;;;;;;22.14;46.30;99852.31;1697042;84;21044;-62
2022/03/31 11:04:55;;;;;;;25.08;5.90;;;;;;;22.32;47.07;99858.32;1697167;84;21527;-62
2022/03/31 11:07:24;;;;;;;27.58;5.40;;;;;;;22.65;46.61;99837.87;1697163;84;21029;-62
2022/03/31 11:10:09;;;;;;;20.82;4.87;;;;;;;22.92;44.87;99848.06;1696903;84;21536;-62
2022/03/31 11:12:37;;;;;;;24.40;5.60;;;;;;;22.78;43.35;99840.34;1697260;84;21563;-61
2022/03/31 11:15:15;;;;;;;23.77;5.80;;;;;;;22.66;43.66;99815.91;1697175;84;21048;-61
2022/03/31 11:17:43;;;;;;;21.65;5.80;;;;;;;22.53;44.17;99823.77;1696406;84;21084;-62
2022/03/31 11:20:24;;;;;;;17.15;5.15;;;;;;;22.36;44.38;99831.27;1681255;85;21053;-62
2022/03/31 11:22:55;;;;;;;24.77;5.42;;;;;;;22.17;44.61;99834.47;1681415;85;21057;-62
2022/03/31 11:25:25;;;;;;;25.12;5.70;;;;;;;22.24;44.93;99833.86;1681575;85;21029;-62
2022/03/31 11:27:53;;;;;;;31.85;5.42;;;;;;;22.09;44.48;99829.20;1681341;85;21037;-62
2022/03/31 11:30:23;;;;;;;31.82;5.80;;;;;;;22.11;44.62;99824.62;1681409;85;21029;-62
2022/03/31 11:32:56;;;;;;;29.50;5.40;;;;;;;22.35;45.10;99818.66;1681347;85;22412;-62
2022/03/31 11:35:27;;;;;;;19.70;4.65;;;;;;;22.14;44.96;99827.41;1681517;85;21619;-62
2022/03/31 11:38:03;;;;;;;24.60;5.17;;;;;;;22.08;43.68;99831.97;1681571;85;21072;-62
2022/03/31 11:40:36;;;;;;;25.08;5.80;;;;;;;22.15;43.78;99825.94;1681356;85;21069;-61
2022/03/31 11:43:08;;;;;;;24.63;5.35;;;;;;;22.12;44.06;99824.97;1681607;85;21135;-62